createdAt,value
2024-02-29T00:00:46.289Z,66.82
2024-02-29T00:01:45.450Z,64.92
2024-02-29T00:02:45.302Z,63.50
2024-02-29T00:03:45.323Z,65.96
2024-02-29T00:04:45.378Z,64.06
2024-02-29T00:05:45.280Z,66.99
2024-02-29T00:06:45.283Z,66.70
2024-02-29T00:07:45.273Z,63.22
2024-02-29T00:08:45.290Z,65.85
2024-02-29T00:09:45.301Z,63.59
2024-02-29T00:10:45.304Z,67.45
2024-02-29T00:11:45.271Z,69.29
2024-02-29T00:12:45.271Z,63.54
2024-02-29T00:13:45.268Z,62.38
2024-02-29T00:14:45.259Z,65.00
2024-02-29T00:15:45.271Z,65.22
2024-02-29T00:16:45.254Z,65.41
2024-02-29T00:17:45.258Z,65.49
2024-02-29T00:18:45.280Z,63.31
2024-02-29T00:19:45.195Z,64.37
2024-02-29T00:20:45.218Z,64.04
2024-02-29T00:21:45.209Z,65.94
2024-02-29T00:22:45.218Z,66.96
2024-02-29T00:23:45.196Z,63.03
2024-02-29T00:24:45.197Z,66.34
2024-02-29T00:25:45.172Z,66.56
2024-02-29T00:26:45.265Z,62.97
2024-02-29T00:27:45.194Z,64.98
2024-02-29T00:28:45.144Z,64.52
2024-02-29T00:29:45.136Z,68.18
2024-02-29T00:30:45.202Z,63.27
2024-02-29T00:31:45.141Z,63.12
2024-02-29T00:32:45.174Z,71.24
2024-02-29T00:33:45.180Z,69.74
2024-02-29T00:34:45.088Z,73.42
2024-02-29T00:35:49.335Z,64.33
2024-02-29T00:36:46.248Z,64.63
2024-02-29T00:37:45.098Z,69.67
2024-02-29T00:38:45.084Z,65.31
2024-02-29T00:39:45.094Z,67.69
2024-02-29T00:40:45.150Z,64.94
2024-02-29T00:41:45.110Z,66.54
2024-02-29T00:42:45.091Z,65.80
2024-02-29T00:43:45.063Z,64.65
2024-02-29T00:44:45.084Z,62.45
2024-02-29T00:45:45.128Z,62.83
2024-02-29T00:46:45.115Z,66.71
2024-02-29T00:47:45.041Z,64.52
2024-02-29T00:48:45.040Z,62.84
2024-02-29T00:49:45.019Z,63.39
2024-02-29T00:50:45.008Z,63.24
2024-02-29T00:51:45.108Z,62.67
2024-02-29T00:52:44.979Z,70.92
2024-02-29T00:53:44.995Z,63.56
2024-02-29T00:54:45.015Z,62.38
2024-02-29T00:55:44.967Z,64.83
2024-02-29T00:56:44.988Z,62.37
2024-02-29T00:57:44.988Z,62.46
2024-02-29T00:58:44.957Z,63.34
2024-02-29T00:59:44.942Z,63.07
2024-02-29T01:00:45.078Z,65.23
2024-02-29T01:01:45.091Z,65.12
2024-02-29T01:02:44.976Z,65.42
2024-02-29T01:03:44.929Z,66.20
2024-02-29T01:04:44.919Z,64.41
2024-02-29T01:05:44.925Z,62.55
2024-02-29T01:06:44.933Z,68.88
2024-02-29T01:07:45.078Z,62.82
2024-02-29T01:08:44.904Z,64.89
2024-02-29T01:09:44.936Z,66.90
2024-02-29T01:10:44.934Z,65.88
2024-02-29T01:11:44.894Z,62.53
2024-02-29T01:12:44.984Z,65.02
2024-02-29T01:13:44.867Z,63.69
2024-02-29T01:14:44.865Z,66.54
2024-02-29T01:15:44.923Z,62.59
2024-02-29T01:16:44.864Z,63.63
2024-02-29T01:17:44.838Z,65.29
2024-02-29T01:18:44.847Z,62.98
2024-02-29T01:19:44.857Z,64.57
2024-02-29T01:20:44.826Z,63.53
2024-02-29T01:21:44.841Z,66.52
2024-02-29T01:22:44.827Z,65.25
2024-02-29T01:23:44.803Z,65.95
2024-02-29T01:24:44.835Z,66.23
2024-02-29T01:25:45.796Z,63.40
2024-02-29T01:26:44.788Z,63.65
2024-02-29T01:27:44.869Z,67.66
2024-02-29T01:28:44.815Z,65.70
2024-02-29T01:29:44.778Z,71.22
2024-02-29T01:30:44.859Z,69.12
2024-02-29T01:31:44.767Z,65.75
2024-02-29T01:32:44.762Z,65.82
2024-02-29T01:33:44.754Z,69.62
2024-02-29T01:34:44.722Z,64.04
2024-02-29T01:35:44.716Z,69.91
2024-02-29T01:36:44.747Z,68.15
2024-02-29T01:37:44.720Z,65.55
2024-02-29T01:38:44.690Z,65.14
2024-02-29T01:39:44.775Z,68.23
2024-02-29T01:40:44.711Z,63.10
2024-02-29T01:41:44.668Z,66.84
2024-02-29T01:42:44.755Z,65.36
2024-02-29T01:43:44.658Z,69.70
2024-02-29T01:44:44.740Z,70.97
2024-02-29T01:45:44.732Z,65.65
2024-02-29T01:46:44.688Z,64.78
2024-02-29T01:47:44.683Z,73.30
2024-02-29T01:48:44.628Z,64.93
2024-02-29T01:49:44.639Z,71.40
2024-02-29T01:50:44.661Z,65.38
2024-02-29T01:51:44.648Z,66.93
2024-02-29T01:52:44.627Z,62.81
2024-02-29T01:53:44.601Z,65.16
2024-02-29T01:54:45.630Z,64.54
2024-02-29T01:55:44.608Z,63.89
2024-02-29T01:56:44.614Z,66.43
2024-02-29T01:57:44.621Z,63.15
2024-02-29T01:58:44.569Z,62.67
2024-02-29T01:59:44.569Z,62.59
2024-02-29T02:00:44.609Z,62.75
2024-02-29T02:01:44.669Z,62.87
2024-02-29T02:02:44.542Z,65.40
2024-02-29T02:03:44.610Z,63.05
2024-02-29T02:04:44.583Z,63.27
2024-02-29T02:05:44.531Z,71.94
2024-02-29T02:06:44.524Z,65.14
2024-02-29T02:07:44.543Z,65.72
2024-02-29T02:08:44.511Z,65.24
2024-02-29T02:09:44.519Z,65.85
2024-02-29T02:10:44.609Z,62.88
2024-02-29T02:11:44.540Z,63.14
2024-02-29T02:12:44.808Z,64.00
2024-02-29T02:13:44.507Z,62.80
2024-02-29T02:14:44.485Z,68.40
2024-02-29T02:15:44.510Z,65.30
2024-02-29T02:16:44.463Z,62.89
2024-02-29T02:17:44.484Z,63.13
2024-02-29T02:18:44.519Z,62.43
2024-02-29T02:19:44.468Z,62.99
2024-02-29T02:20:44.466Z,63.18
2024-02-29T02:21:44.476Z,66.44
2024-02-29T02:22:44.414Z,62.85
2024-02-29T02:23:44.435Z,63.11
2024-02-29T02:24:44.442Z,68.24
2024-02-29T02:25:44.410Z,63.32
2024-02-29T02:26:44.412Z,66.25
2024-02-29T02:27:44.482Z,70.72
2024-02-29T02:28:44.438Z,64.61
2024-02-29T02:29:44.489Z,62.90
2024-02-29T02:30:44.384Z,62.95
2024-02-29T02:31:44.401Z,71.12
2024-02-29T02:32:44.425Z,62.96
2024-02-29T02:33:44.444Z,62.98
2024-02-29T02:34:44.396Z,67.46
2024-02-29T02:35:44.361Z,65.71
2024-02-29T02:36:44.372Z,64.60
2024-02-29T02:37:44.368Z,66.50
2024-02-29T02:38:44.360Z,68.12
2024-02-29T02:39:44.395Z,63.41
2024-02-29T02:40:44.336Z,67.19
2024-02-29T02:41:44.331Z,64.08
2024-02-29T02:42:45.399Z,70.13
2024-02-29T02:43:44.330Z,62.73
2024-02-29T02:44:44.341Z,63.19
2024-02-29T02:45:44.337Z,66.40
2024-02-29T02:46:44.272Z,62.72
2024-02-29T02:47:44.329Z,67.54
2024-02-29T02:48:44.297Z,64.88
2024-02-29T02:49:44.261Z,68.49
2024-02-29T02:50:44.512Z,67.40
2024-02-29T02:51:44.316Z,65.85
2024-02-29T02:52:44.277Z,62.91
2024-02-29T02:53:44.273Z,65.92
2024-02-29T02:54:44.280Z,67.38
2024-02-29T02:55:44.253Z,68.78
2024-02-29T02:56:44.279Z,70.81
2024-02-29T02:57:44.231Z,69.62
2024-02-29T02:58:44.246Z,69.73
2024-02-29T02:59:44.244Z,68.68
2024-02-29T03:00:44.272Z,68.10
2024-02-29T03:01:44.302Z,73.82
2024-02-29T03:02:44.220Z,67.63
2024-02-29T03:03:44.213Z,67.00
2024-02-29T03:04:44.204Z,66.67
2024-02-29T03:05:44.178Z,66.56
2024-02-29T03:06:45.253Z,68.63
2024-02-29T03:07:44.197Z,68.94
2024-02-29T03:08:44.168Z,66.38
2024-02-29T03:09:44.241Z,66.41
2024-02-29T03:10:44.190Z,66.90
2024-02-29T03:11:44.174Z,66.48
2024-02-29T03:12:44.170Z,67.42
2024-02-29T03:13:44.179Z,66.55
2024-02-29T03:14:44.155Z,67.94
2024-02-29T03:15:44.203Z,69.46
2024-02-29T03:16:44.151Z,68.08
2024-02-29T03:17:44.144Z,66.29
2024-02-29T03:18:44.159Z,67.29
2024-02-29T03:19:44.112Z,66.45
2024-02-29T03:20:44.195Z,69.58
2024-02-29T03:21:44.170Z,70.24
2024-02-29T03:22:44.104Z,71.99
2024-02-29T03:23:44.131Z,67.50
2024-02-29T03:24:44.119Z,66.41
2024-02-29T03:25:45.080Z,67.38
2024-02-29T03:26:44.084Z,68.16
2024-02-29T03:27:44.121Z,67.15
2024-02-29T03:28:44.079Z,66.60
2024-02-29T03:29:44.072Z,67.31
2024-02-29T03:30:44.060Z,68.32
2024-02-29T03:31:44.052Z,70.32
2024-02-29T03:32:44.095Z,71.57
2024-02-29T03:33:44.117Z,70.39
2024-02-29T03:34:44.046Z,68.74
2024-02-29T03:35:44.069Z,67.33
2024-02-29T03:36:44.097Z,67.51
2024-02-29T03:37:44.012Z,67.96
2024-02-29T03:38:44.026Z,69.34
2024-02-29T03:39:44.036Z,69.46
2024-02-29T03:40:44.000Z,67.70
2024-02-29T03:41:44.001Z,72.15
2024-02-29T03:42:44.073Z,69.31
2024-02-29T03:43:43.995Z,73.04
2024-02-29T03:44:44.015Z,67.12
2024-02-29T03:45:44.004Z,67.95
2024-02-29T03:46:43.976Z,68.09
2024-02-29T03:47:44.015Z,72.57
2024-02-29T03:48:43.973Z,69.83
2024-02-29T03:49:43.987Z,67.08
2024-02-29T03:50:43.958Z,69.83
2024-02-29T03:51:44.002Z,71.61
2024-02-29T03:52:43.951Z,67.42
2024-02-29T03:53:43.932Z,71.59
2024-02-29T03:54:43.942Z,71.70
2024-02-29T03:55:44.776Z,69.55
2024-02-29T03:56:43.928Z,70.88
2024-02-29T03:57:43.911Z,73.65
2024-02-29T03:58:43.910Z,67.50
2024-02-29T03:59:43.895Z,72.39
2024-02-29T04:00:43.902Z,70.47
2024-02-29T04:01:44.030Z,70.17
2024-02-29T04:02:43.877Z,69.59
2024-02-29T04:03:43.933Z,75.07
2024-02-29T04:04:43.868Z,70.07
2024-02-29T04:05:43.901Z,70.04
2024-02-29T04:06:43.945Z,72.91
2024-02-29T04:07:43.923Z,70.15
2024-02-29T04:08:43.865Z,69.72
2024-02-29T04:09:43.901Z,73.09
2024-02-29T04:10:43.881Z,71.36
2024-02-29T04:11:43.827Z,68.74
2024-02-29T04:12:43.845Z,71.13
2024-02-29T04:13:43.827Z,70.82
2024-02-29T04:14:43.826Z,71.17
2024-02-29T04:15:44.782Z,69.62
2024-02-29T04:16:43.830Z,73.04
2024-02-29T04:17:43.843Z,72.61
2024-02-29T04:18:43.807Z,71.39
2024-02-29T04:19:43.770Z,71.07
2024-02-29T04:20:43.788Z,71.00
2024-02-29T04:21:43.876Z,71.07
2024-02-29T04:22:43.790Z,70.77
2024-02-29T04:23:43.817Z,70.47
2024-02-29T04:24:43.922Z,70.27
2024-02-29T04:25:43.772Z,73.90
2024-02-29T04:26:43.758Z,72.58
2024-02-29T04:27:43.761Z,71.01
2024-02-29T04:28:43.736Z,71.73
2024-02-29T04:29:43.747Z,70.64
2024-02-29T04:30:43.903Z,71.46
2024-02-29T04:31:43.746Z,74.28
2024-02-29T04:32:43.777Z,73.63
2024-02-29T04:33:43.727Z,73.44
2024-02-29T04:34:43.685Z,73.79
2024-02-29T04:35:43.710Z,73.40
2024-02-29T04:36:43.778Z,73.66
2024-02-29T04:37:43.684Z,70.42
2024-02-29T04:38:43.686Z,72.07
2024-02-29T04:39:43.698Z,71.37
2024-02-29T04:40:43.676Z,73.66
2024-02-29T04:41:43.695Z,73.64
2024-02-29T04:42:43.675Z,72.93
2024-02-29T04:43:43.618Z,73.93
2024-02-29T04:44:44.628Z,74.84
2024-02-29T04:45:43.662Z,71.22
2024-02-29T04:46:43.679Z,71.82
2024-02-29T04:47:43.649Z,76.85
2024-02-29T04:48:43.733Z,74.21
2024-02-29T04:49:43.616Z,71.06
2024-02-29T04:50:43.608Z,73.97
2024-02-29T04:51:43.691Z,72.04
2024-02-29T04:52:43.618Z,73.27
2024-02-29T04:53:43.609Z,70.86
2024-02-29T04:54:43.645Z,73.51
2024-02-29T04:55:43.578Z,73.49
2024-02-29T04:56:43.569Z,73.52
2024-02-29T04:57:43.607Z,72.98
2024-02-29T04:58:43.634Z,71.91
2024-02-29T04:59:43.554Z,74.02
2024-02-29T05:00:43.672Z,71.79
2024-02-29T05:01:43.641Z,73.45
2024-02-29T05:02:43.548Z,72.04
2024-02-29T05:03:43.588Z,74.47
2024-02-29T05:04:43.528Z,75.87
2024-02-29T05:05:43.528Z,70.16
2024-02-29T05:06:43.562Z,74.98
2024-02-29T05:07:43.543Z,73.18
2024-02-29T05:08:43.561Z,72.40
2024-02-29T05:09:43.555Z,71.46
2024-02-29T05:10:43.539Z,70.70
2024-02-29T05:11:43.479Z,73.04
2024-02-29T05:12:43.504Z,71.98
2024-02-29T05:13:43.497Z,74.34
2024-02-29T05:14:43.551Z,73.05
2024-02-29T05:15:43.529Z,71.78
2024-02-29T05:16:43.487Z,71.23
2024-02-29T05:17:43.502Z,72.09
2024-02-29T05:18:43.531Z,72.18
2024-02-29T05:19:43.495Z,75.18
2024-02-29T05:20:43.532Z,73.24
2024-02-29T05:21:43.486Z,76.13
2024-02-29T05:22:43.437Z,72.52
2024-02-29T05:23:43.466Z,74.38
2024-02-29T05:24:43.494Z,70.23
2024-02-29T05:25:43.464Z,72.72
2024-02-29T05:26:43.760Z,72.33
2024-02-29T05:27:43.447Z,76.86
2024-02-29T05:28:43.427Z,73.45
2024-02-29T05:29:44.265Z,75.32
2024-02-29T05:30:43.462Z,74.59
2024-02-29T05:31:43.439Z,74.71
2024-02-29T05:32:43.448Z,72.98
2024-02-29T05:33:43.498Z,75.03
2024-02-29T05:34:43.386Z,73.90
2024-02-29T05:35:43.391Z,73.87
2024-02-29T05:36:43.497Z,79.23
2024-02-29T05:37:43.371Z,73.23
2024-02-29T05:38:43.379Z,74.49
2024-02-29T05:39:43.492Z,74.71
2024-02-29T05:40:43.368Z,75.24
2024-02-29T05:41:43.342Z,74.44
2024-02-29T05:42:43.420Z,74.12
2024-02-29T05:43:43.356Z,75.71
2024-02-29T05:44:43.381Z,76.74
2024-02-29T05:45:43.383Z,75.35
2024-02-29T05:46:43.336Z,75.31
2024-02-29T05:47:43.375Z,75.34
2024-02-29T05:48:43.455Z,78.01
2024-02-29T05:49:43.344Z,73.44
2024-02-29T05:50:43.340Z,74.32
2024-02-29T05:51:43.418Z,74.85
2024-02-29T05:52:43.356Z,75.12
2024-02-29T05:53:43.376Z,76.60
2024-02-29T05:54:43.347Z,75.32
2024-02-29T05:55:43.436Z,75.15
2024-02-29T05:56:43.288Z,76.12
2024-02-29T05:57:43.556Z,73.58
2024-02-29T05:58:43.276Z,74.67
2024-02-29T05:59:43.295Z,74.07
2024-02-29T06:00:43.344Z,74.58
2024-02-29T06:01:43.353Z,72.88
2024-02-29T06:02:43.312Z,73.95
2024-02-29T06:03:43.374Z,73.20
2024-02-29T06:04:43.256Z,76.07
2024-02-29T06:05:43.249Z,75.52
2024-02-29T06:06:43.250Z,75.08
2024-02-29T06:07:43.238Z,76.24
2024-02-29T06:08:43.215Z,76.53
2024-02-29T06:09:43.237Z,74.09
2024-02-29T06:10:43.228Z,72.60
2024-02-29T06:11:43.190Z,73.57
2024-02-29T06:12:43.242Z,74.17
2024-02-29T06:13:43.236Z,75.52
2024-02-29T06:14:43.208Z,76.18
2024-02-29T06:15:43.444Z,74.94
2024-02-29T06:16:43.185Z,75.76
2024-02-29T06:17:43.207Z,75.23
2024-02-29T06:18:43.186Z,77.78
2024-02-29T06:19:43.142Z,77.33
2024-02-29T06:20:43.263Z,76.51
2024-02-29T06:21:43.188Z,73.43
2024-02-29T06:22:43.153Z,74.95
2024-02-29T06:23:43.250Z,76.18
2024-02-29T06:24:43.124Z,76.71
2024-02-29T06:25:43.132Z,74.99
2024-02-29T06:26:43.136Z,74.86
2024-02-29T06:27:43.123Z,76.48
2024-02-29T06:28:43.112Z,74.16
2024-02-29T06:29:43.119Z,77.69
2024-02-29T06:30:43.184Z,77.52
2024-02-29T06:31:43.125Z,77.16
2024-02-29T06:32:43.129Z,73.78
2024-02-29T06:33:43.132Z,76.10
2024-02-29T06:34:43.092Z,75.19
2024-02-29T06:35:43.102Z,74.83
2024-02-29T06:36:43.126Z,76.17
2024-02-29T06:37:43.076Z,75.26
2024-02-29T06:38:43.078Z,74.04
2024-02-29T06:39:43.120Z,75.42
2024-02-29T06:40:43.117Z,74.70
2024-02-29T06:41:43.087Z,72.72
2024-02-29T06:42:43.173Z,76.09
2024-02-29T06:43:43.048Z,73.42
2024-02-29T06:44:44.033Z,75.75
2024-02-29T06:45:43.051Z,74.46
2024-02-29T06:46:43.064Z,76.93
2024-02-29T06:47:43.779Z,73.77
2024-02-29T06:48:43.035Z,73.92
2024-02-29T06:49:42.982Z,74.82
2024-02-29T06:50:43.049Z,74.62
2024-02-29T06:51:43.018Z,75.42
2024-02-29T06:52:42.953Z,75.05
2024-02-29T06:53:42.974Z,73.51
2024-02-29T06:54:43.015Z,77.19
2024-02-29T06:55:42.966Z,73.85
2024-02-29T06:56:42.966Z,72.03
2024-02-29T06:57:42.957Z,75.07
2024-02-29T06:58:42.942Z,75.73
2024-02-29T06:59:42.943Z,73.91
2024-02-29T07:00:42.989Z,74.56
2024-02-29T07:01:43.001Z,74.30
2024-02-29T07:02:42.931Z,74.31
2024-02-29T07:03:42.968Z,72.68
2024-02-29T07:04:42.943Z,73.47
2024-02-29T07:05:42.938Z,74.57
2024-02-29T07:06:43.112Z,75.72
2024-02-29T07:07:42.929Z,74.66
2024-02-29T07:08:42.948Z,73.36
2024-02-29T07:09:42.893Z,73.57
2024-02-29T07:10:42.886Z,77.41
2024-02-29T07:11:43.020Z,73.83
2024-02-29T07:12:42.918Z,74.62
2024-02-29T07:13:42.881Z,75.30
2024-02-29T07:14:42.886Z,73.35
2024-02-29T07:15:42.899Z,75.48
2024-02-29T07:16:42.842Z,74.24
2024-02-29T07:17:42.857Z,76.73
2024-02-29T07:18:42.964Z,74.67
2024-02-29T07:19:42.835Z,74.83
2024-02-29T07:20:42.913Z,75.03
2024-02-29T07:21:42.823Z,76.96
2024-02-29T07:22:42.876Z,75.41
2024-02-29T07:23:42.785Z,73.62
2024-02-29T07:24:42.819Z,73.78
2024-02-29T07:25:42.790Z,73.87
2024-02-29T07:26:42.857Z,75.06
2024-02-29T07:27:42.816Z,72.69
2024-02-29T07:28:42.783Z,73.73
2024-02-29T07:29:42.766Z,75.39
2024-02-29T07:30:42.807Z,77.14
2024-02-29T07:31:42.774Z,74.48
2024-02-29T07:32:42.806Z,75.73
2024-02-29T07:33:42.846Z,74.71
2024-02-29T07:34:42.799Z,73.50
2024-02-29T07:35:42.774Z,71.90
2024-02-29T07:36:42.810Z,74.05
2024-02-29T07:37:42.789Z,74.89
2024-02-29T07:38:42.751Z,75.56
2024-02-29T07:39:42.750Z,75.18
2024-02-29T07:40:42.756Z,71.69
2024-02-29T07:41:42.709Z,73.94
2024-02-29T07:42:42.790Z,75.24
2024-02-29T07:43:42.693Z,73.82
2024-02-29T07:44:42.704Z,72.41
2024-02-29T07:45:42.730Z,76.43
2024-02-29T07:46:42.681Z,75.13
2024-02-29T07:47:42.714Z,74.78
2024-02-29T07:48:42.682Z,76.75
2024-02-29T07:49:42.633Z,71.20
2024-02-29T07:50:42.658Z,73.92
2024-02-29T07:51:42.719Z,73.19
2024-02-29T07:52:42.699Z,72.15
2024-02-29T07:53:42.637Z,73.63
2024-02-29T07:54:42.661Z,73.04
2024-02-29T07:55:42.647Z,76.66
2024-02-29T07:56:42.679Z,76.55
2024-02-29T07:57:42.647Z,73.06
2024-02-29T07:58:42.602Z,74.60
2024-02-29T07:59:42.594Z,74.39
2024-02-29T08:00:42.627Z,71.05
2024-02-29T08:01:42.605Z,70.12
2024-02-29T08:02:42.574Z,70.79
2024-02-29T08:03:42.601Z,72.48
2024-02-29T08:04:42.621Z,74.14
2024-02-29T08:05:42.559Z,70.62
2024-02-29T08:06:42.556Z,72.11
2024-02-29T08:07:42.567Z,72.06
2024-02-29T08:08:42.537Z,72.46
2024-02-29T08:09:42.591Z,72.36
2024-02-29T08:10:42.533Z,75.15
2024-02-29T08:11:42.597Z,72.67
2024-02-29T08:12:42.575Z,68.68
2024-02-29T08:13:42.534Z,73.51
2024-02-29T08:14:42.513Z,71.43
2024-02-29T08:15:42.547Z,72.38
2024-02-29T08:16:42.521Z,72.72
2024-02-29T08:17:42.505Z,72.49
2024-02-29T08:18:43.168Z,73.25
2024-02-29T08:19:42.513Z,73.11
2024-02-29T08:20:42.541Z,71.61
2024-02-29T08:21:42.490Z,71.39
2024-02-29T08:22:42.487Z,69.80
2024-02-29T08:23:42.524Z,71.82
2024-02-29T08:24:42.533Z,68.44
2024-02-29T08:25:42.466Z,67.23
2024-02-29T08:26:42.437Z,73.41
2024-02-29T08:27:42.540Z,68.84
2024-02-29T08:28:42.539Z,73.24
2024-02-29T08:29:42.495Z,71.56
2024-02-29T08:30:42.476Z,72.15
2024-02-29T08:31:42.571Z,69.80
2024-02-29T08:32:42.506Z,71.93
2024-02-29T08:33:42.538Z,73.36
2024-02-29T08:34:42.515Z,73.84
2024-02-29T08:35:42.399Z,73.94
2024-02-29T08:36:42.428Z,71.22
2024-02-29T08:37:42.372Z,71.20
2024-02-29T08:38:42.366Z,72.14
2024-02-29T08:39:42.694Z,71.11
2024-02-29T08:40:42.551Z,73.75
2024-02-29T08:41:42.359Z,71.71
2024-02-29T08:42:42.403Z,72.37
2024-02-29T08:43:42.340Z,71.89
2024-02-29T08:44:42.346Z,71.83
2024-02-29T08:45:42.379Z,74.57
2024-02-29T08:46:42.321Z,70.42
2024-02-29T08:47:42.440Z,72.79
2024-02-29T08:48:42.346Z,71.60
2024-02-29T08:49:42.304Z,72.36
2024-02-29T08:50:42.334Z,73.16
2024-02-29T08:51:42.390Z,73.70
2024-02-29T08:52:42.286Z,74.89
2024-02-29T08:53:42.282Z,70.28
2024-02-29T08:54:42.275Z,72.75
2024-02-29T08:55:42.285Z,70.30
2024-02-29T08:56:42.264Z,75.49
2024-02-29T08:57:42.289Z,73.53
2024-02-29T08:58:42.243Z,69.20
2024-02-29T08:59:42.229Z,72.61
2024-02-29T09:00:42.295Z,69.54
2024-02-29T09:01:42.313Z,72.69
2024-02-29T09:02:42.232Z,72.52
2024-02-29T09:03:42.214Z,63.11
2024-02-29T09:04:42.244Z,74.90
2024-02-29T09:05:42.194Z,72.41
2024-02-29T09:06:42.443Z,70.36
2024-02-29T09:07:42.229Z,73.78
2024-02-29T09:08:42.186Z,67.18
2024-02-29T09:09:42.213Z,71.44
2024-02-29T09:10:42.167Z,70.91
2024-02-29T09:11:42.180Z,75.46
2024-02-29T09:12:42.254Z,71.27
2024-02-29T09:13:43.264Z,70.62
2024-02-29T09:14:42.191Z,72.91
2024-02-29T09:15:42.183Z,75.31
2024-02-29T09:16:42.122Z,70.73
2024-02-29T09:17:42.159Z,68.31
2024-02-29T09:18:42.159Z,74.20
2024-02-29T09:19:42.106Z,69.79
2024-02-29T09:20:42.103Z,71.93
2024-02-29T09:21:42.117Z,73.20
2024-02-29T09:22:42.105Z,71.22
2024-02-29T09:23:42.153Z,72.90
2024-02-29T09:24:42.127Z,70.34
2024-02-29T09:25:42.081Z,72.93
2024-02-29T09:26:42.077Z,69.99
2024-02-29T09:27:42.076Z,67.52
2024-02-29T09:28:42.118Z,73.58
2024-02-29T09:29:42.067Z,71.41
2024-02-29T09:30:42.095Z,70.21
2024-02-29T09:31:42.039Z,72.56
2024-02-29T09:32:42.051Z,72.40
2024-02-29T09:33:42.169Z,69.21
2024-02-29T09:34:46.068Z,70.03
2024-02-29T09:35:44.054Z,72.23
2024-02-29T09:36:42.005Z,71.70
2024-02-29T09:37:41.997Z,69.31
2024-02-29T09:38:41.996Z,70.91
2024-02-29T09:39:42.069Z,75.77
2024-02-29T09:40:49.199Z,73.17
2024-02-29T09:41:59.636Z,70.32
2024-02-29T09:42:42.986Z,71.53
2024-02-29T09:43:41.970Z,75.41
2024-02-29T09:44:41.962Z,68.95
2024-02-29T09:45:41.980Z,72.64
2024-02-29T09:46:41.963Z,67.34
2024-02-29T09:47:42.970Z,71.14
2024-02-29T09:48:41.928Z,76.21
2024-02-29T09:49:42.325Z,72.90
2024-02-29T09:50:42.946Z,72.96
2024-02-29T09:51:41.964Z,72.36
2024-02-29T09:52:41.905Z,73.29
2024-02-29T09:53:41.903Z,76.02
2024-02-29T09:54:41.935Z,68.74
2024-02-29T09:55:41.919Z,72.53
2024-02-29T09:56:41.908Z,73.58
2024-02-29T09:57:41.923Z,72.86
2024-02-29T09:58:41.845Z,74.48
2024-02-29T09:59:41.911Z,75.01
2024-02-29T10:00:41.946Z,67.93
2024-02-29T10:01:42.001Z,71.89
2024-02-29T10:02:41.849Z,74.66
2024-02-29T10:03:41.852Z,69.11
2024-02-29T10:04:41.822Z,72.25
2024-02-29T10:05:41.846Z,74.12
2024-02-29T10:06:41.863Z,69.71
2024-02-29T10:07:41.830Z,71.76
2024-02-29T10:08:41.805Z,73.62
2024-02-29T10:09:41.824Z,73.01
2024-02-29T10:10:41.808Z,72.53
2024-02-29T10:11:42.805Z,71.90
2024-02-29T10:12:41.783Z,73.45
2024-02-29T10:13:41.807Z,72.55
2024-02-29T10:14:41.748Z,68.03
2024-02-29T10:15:41.792Z,73.81
2024-02-29T10:16:42.768Z,74.10
2024-02-29T10:17:41.798Z,73.34
2024-02-29T10:18:41.742Z,71.07
2024-02-29T10:19:41.739Z,73.97
2024-02-29T10:20:41.733Z,72.35
2024-02-29T10:21:41.724Z,76.03
2024-02-29T10:22:41.722Z,71.32
2024-02-29T10:23:41.724Z,72.37
2024-02-29T10:24:41.710Z,71.88
2024-02-29T10:25:41.672Z,70.08
2024-02-29T10:26:41.691Z,74.30
2024-02-29T10:27:41.932Z,73.95
2024-02-29T10:28:41.692Z,73.98
2024-02-29T10:29:41.687Z,74.84
2024-02-29T10:30:41.741Z,70.93
2024-02-29T10:31:41.632Z,69.93
2024-02-29T10:32:41.672Z,69.90
2024-02-29T10:33:41.673Z,69.08
2024-02-29T10:34:41.641Z,74.20
2024-02-29T10:35:41.623Z,70.39
2024-02-29T10:36:41.771Z,71.58
2024-02-29T10:37:41.605Z,70.69
2024-02-29T10:38:41.594Z,71.64
2024-02-29T10:39:41.629Z,73.75
2024-02-29T10:40:41.577Z,73.19
2024-02-29T10:41:41.605Z,73.57
2024-02-29T10:42:41.610Z,73.41
2024-02-29T10:43:41.589Z,68.78
2024-02-29T10:44:41.580Z,73.96
2024-02-29T10:45:41.613Z,71.87
2024-02-29T10:46:41.585Z,68.49
2024-02-29T10:47:41.600Z,70.97
2024-02-29T10:48:41.577Z,72.00
2024-02-29T10:49:41.553Z,78.85
2024-02-29T10:50:41.522Z,73.88
2024-02-29T10:51:41.548Z,74.67
2024-02-29T10:52:41.532Z,71.90
2024-02-29T10:53:41.537Z,73.90
2024-02-29T10:54:41.542Z,71.18
2024-02-29T10:55:41.540Z,73.78
2024-02-29T10:56:43.239Z,73.85
2024-02-29T10:57:42.513Z,73.06
2024-02-29T10:58:41.501Z,73.70
2024-02-29T10:59:41.471Z,69.83
2024-02-29T11:00:41.541Z,73.91
2024-02-29T11:01:41.543Z,75.92
2024-02-29T11:02:41.469Z,70.80
2024-02-29T11:03:41.493Z,74.12
2024-02-29T11:04:42.211Z,68.65
2024-02-29T11:05:41.454Z,72.34
2024-02-29T11:06:41.463Z,72.15
2024-02-29T11:07:41.503Z,72.00
2024-02-29T11:08:41.650Z,74.57
2024-02-29T11:09:41.542Z,73.43
2024-02-29T11:10:41.470Z,75.78
2024-02-29T11:11:41.412Z,72.77
2024-02-29T11:12:41.533Z,70.18
2024-02-29T11:13:41.388Z,71.10
2024-02-29T11:14:41.409Z,71.37
2024-02-29T11:15:41.578Z,71.00
2024-02-29T11:16:41.389Z,73.19
2024-02-29T11:17:42.412Z,73.07
2024-02-29T11:18:41.403Z,69.15
2024-02-29T11:19:47.988Z,73.25
2024-02-29T11:20:43.359Z,72.05
2024-02-29T11:21:41.409Z,73.37
2024-02-29T11:22:41.340Z,69.02
2024-02-29T11:23:41.332Z,71.54
2024-02-29T11:24:41.580Z,73.22
2024-02-29T11:25:41.432Z,68.80
2024-02-29T11:26:41.297Z,71.14
2024-02-29T11:27:41.333Z,73.77
2024-02-29T11:28:41.292Z,73.85
2024-02-29T11:29:41.344Z,72.24
2024-02-29T11:30:41.341Z,70.67
2024-02-29T11:31:41.259Z,73.78
2024-02-29T11:32:41.260Z,69.56
2024-02-29T11:33:41.299Z,74.32
2024-02-29T11:34:41.250Z,72.81
2024-02-29T11:35:41.299Z,70.75
2024-02-29T11:36:41.287Z,72.20
2024-02-29T11:37:41.303Z,73.32
2024-02-29T11:38:41.296Z,72.23
2024-02-29T11:39:41.252Z,73.00
2024-02-29T11:40:41.236Z,71.87
2024-02-29T11:41:41.301Z,72.49
2024-02-29T11:42:41.240Z,73.34
2024-02-29T11:43:41.206Z,70.32
2024-02-29T11:44:41.195Z,74.25
2024-02-29T11:45:41.212Z,71.43
2024-02-29T11:46:41.173Z,71.95
2024-02-29T11:47:41.289Z,71.52
2024-02-29T11:48:41.208Z,73.12
2024-02-29T11:49:41.177Z,70.85
2024-02-29T11:50:41.173Z,70.59
2024-02-29T11:51:41.177Z,72.95
2024-02-29T11:52:41.153Z,73.93
2024-02-29T11:53:41.160Z,74.62
2024-02-29T11:54:41.162Z,74.65
2024-02-29T11:55:41.159Z,72.49
2024-02-29T11:56:41.158Z,71.72
2024-02-29T11:57:42.154Z,72.71
2024-02-29T11:58:41.128Z,71.32
2024-02-29T11:59:41.117Z,72.56
2024-02-29T12:00:41.188Z,72.02
2024-02-29T12:01:41.183Z,74.21
2024-02-29T12:02:41.097Z,72.05
2024-02-29T12:03:41.258Z,73.12
2024-02-29T12:04:41.075Z,73.01
2024-02-29T12:05:41.107Z,74.09
2024-02-29T12:06:41.172Z,72.84
2024-02-29T12:07:41.073Z,75.34
2024-02-29T12:08:41.158Z,76.54
2024-02-29T12:09:41.082Z,76.50
2024-02-29T12:10:49.256Z,73.71
2024-02-29T12:11:42.087Z,74.04
2024-02-29T12:12:41.174Z,70.77
2024-02-29T12:13:41.051Z,72.49
2024-02-29T12:14:41.045Z,73.89
2024-02-29T12:15:41.191Z,73.94
2024-02-29T12:16:41.044Z,72.22
2024-02-29T12:17:41.066Z,70.57
2024-02-29T12:18:41.040Z,70.09
2024-02-29T12:19:41.001Z,74.02
2024-02-29T12:20:42.002Z,75.41
2024-02-29T12:21:41.037Z,77.54
2024-02-29T12:22:41.054Z,75.19
2024-02-29T12:23:40.993Z,74.11
2024-02-29T12:24:41.118Z,71.57
2024-02-29T12:25:40.993Z,71.13
2024-02-29T12:26:40.981Z,73.77
2024-02-29T12:27:42.956Z,72.86
2024-02-29T12:28:40.953Z,71.14
2024-02-29T12:29:40.968Z,73.64
2024-02-29T12:30:40.975Z,71.19
2024-02-29T12:31:40.935Z,73.40
2024-02-29T12:32:41.037Z,75.29
2024-02-29T12:33:41.204Z,72.61
2024-02-29T12:34:41.021Z,71.70
2024-02-29T12:35:40.923Z,73.68
2024-02-29T12:36:40.944Z,73.45
2024-02-29T12:37:40.929Z,69.91
2024-02-29T12:38:40.987Z,69.96
2024-02-29T12:39:40.926Z,72.38
2024-02-29T12:40:41.089Z,72.41
2024-02-29T12:41:40.869Z,71.68
2024-02-29T12:42:40.913Z,70.10
2024-02-29T12:43:40.892Z,71.27
2024-02-29T12:44:40.905Z,73.93
2024-02-29T12:45:40.893Z,74.27
2024-02-29T12:46:41.847Z,74.44
2024-02-29T12:47:40.893Z,69.51
2024-02-29T12:48:40.950Z,74.44
2024-02-29T12:49:40.883Z,67.69
2024-02-29T12:50:40.852Z,74.83
2024-02-29T12:51:40.851Z,74.15
2024-02-29T12:52:40.917Z,72.29